Wolcott, IN

10:23 AM EDT on September 16, 2014 (GMT -0400)
Starke County | Change Station
CLOSE
Current Station
Airport
Location: Knox,
Elevation: 686 ft
Nearby Weather Stations

Elev 686 ft 41.33 °N, 86.66 °W | Updated 8 minutes ago

Overcast
Overcast
56 °F
Feels Like 56 °F
N
4
Wind Variable Wind from East

Today
High -- | Low -- °F
--% Chance of Precip.
Yesterday
High -- | Low -- °F
Precip. -- in
7:29 AM 7:55 PM
Last Quarter, 45% visible
Pressure 30.20 in
Visibility 10.0 miles
Clouds Clear
Dew Point 49 °F
Humidity 77%
Rainfall 0.00 in
Snow Depth Not available.
UV 3 out of 12
Pollen 5.60 out of 12
Air Quality Not available.
Flu Activity Not available.
METAR KOXI 161415Z AUTO 10003KT 10SM CLR 13/09 A3020 RMK AO1 T01320092

More Conditions Fewer Conditions

Pressure 30.20 in
Visibility 10.0 miles
Clouds Clear
Dew Point 49 °F
Humidity 77%
Rainfall 0.00 in
Snow Depth Not available.
UV 3 out of 12
Pollen 5.60 out of 12
Air Quality Not available.
Flu Activity Not available.
METAR KOXI 161415Z AUTO 10003KT 10SM CLR 13/09 A3020 RMK AO1 T01320092

More Conditions Fewer Conditions

10-Day Weather Forecast

Almanac

Astronomy

Sep. 16, 2014 Rise Set
Actual Time 7:29 AM EDT 7:55 PM EDT
Civil Twilight 7:02 AM EDT 8:22 PM EDT
Nautical Twilight 6:29 AM EDT 8:55 PM EDT
Astronomical Twilight 5:56 AM EDT 9:28 PM EDT
Moon 12:37 AM EDT 3:20 PM EDT
Length of Visible Light 13h 20m
Length of Day
12h 25m
Tomorrow will be 2m 40s shorter.
Last Quarter, 45% of the Moon is Illuminated
Today
Last Quarter
Sep 24
New
Oct 1
First Quarter
Oct 8
Full
Oct 15
Last Quarter

Today's Extremes

State Highs State Lows

Community

WunderPhotos

Upload Photos

1,753,784 photos uploaded!

Nearby

Snow Depth

Station Depth Elevation
No new snow has been reported.

Earthquake Activity

City Distance Mag. Time & Date
No recent earthquake activity has been reported nearby.
Minimum magnitude displayed is 2.5.

Coastal Water Temperatures

Place Temperature
No Stations Reporting

Nearby Weather Stations